Time,TemperatureF,DewpointF,PressureIn,WindDirection,WindDirectionDegrees,WindSpeedMPH,WindSpeedGustMPH,Humidity,HourlyPrecipIn,Conditions,Clouds,dailyrainin,SoftwareType,DateUTC
2013-04-04 00:00:00,72.0,51.0,-100.00,North,-999,-999.0,-999.0,47,-99.99,,,0.00,,2013-04-04 07:00:00,
2013-04-04 00:52:00,72.0,51.0,-100.00,North,-999,-999.0,-999.0,47,-99.99,,,0.00,,2013-04-04 07:52:00,
2013-04-04 02:00:00,71.0,49.0,-100.00,North,-999,-999.0,-999.0,47,-99.99,,,0.00,,2013-04-04 09:00:00,
2013-04-04 02:53:00,71.0,49.0,-100.00,North,-999,-999.0,-999.0,47,-99.99,,,0.00,,2013-04-04 09:53:00,
2013-04-04 04:00:00,69.0,48.0,-100.00,North,-999,-999.0,-999.0,47,-99.99,,,0.00,,2013-04-04 11:00:00,
2013-04-04 04:54:00,69.0,48.0,-100.00,North,-999,-999.0,-999.0,47,-99.99,,,0.00,,2013-04-04 11:54:00,
2013-04-04 05:00:00,70.0,47.0,-100.00,North,-999,-999.0,-999.0,45,-99.99,,,0.00,,2013-04-04 12:00:00,
2013-04-04 05:52:00,70.0,47.0,-100.00,North,-999,-999.0,-999.0,45,-99.99,,,0.00,,2013-04-04 12:52:00,
2013-04-04 06:00:00,69.0,48.0,-100.00,North,-999,-999.0,-999.0,48,-99.99,,,0.00,,2013-04-04 13:00:00,
2013-04-04 06:53:00,69.0,48.0,-100.00,North,-999,-999.0,-999.0,48,-99.99,,,0.00,,2013-04-04 13:53:00,
2013-04-04 07:00:00,68.0,48.0,-100.00,North,-999,-999.0,-999.0,49,-99.99,,,0.00,,2013-04-04 14:00:00,
2013-04-04 07:53:00,68.0,48.0,-100.00,North,-999,-999.0,-999.0,49,-99.99,,,0.00,,2013-04-04 14:53:00,
2013-04-04 08:00:00,69.0,48.0,-100.00,North,-999,-999.0,-999.0,47,0.00,,,0.00,,2013-04-04 15:00:00,
2013-04-04 09:00:00,70.0,50.0,-100.00,North,-999,-999.0,-999.0,50,0.00,,,0.00,,2013-04-04 16:00:00,
2013-04-04 09:53:00,70.0,50.0,-100.00,North,-999,-999.0,-999.0,50,0.00,,,0.00,,2013-04-04 16:53:00,
2013-04-04 10:00:00,74.0,31.0,-100.00,North,-999,-999.0,-999.0,20,0.00,,,0.00,,2013-04-04 17:00:00,
2013-04-04 10:52:00,74.0,31.0,-100.00,North,-999,-999.0,-999.0,20,0.00,,,0.00,,2013-04-04 17:52:00,
2013-04-04 11:00:00,76.0,36.0,-100.00,North,-999,-999.0,-999.0,23,0.00,,,0.00,,2013-04-04 18:00:00,
2013-04-04 11:52:00,76.0,36.0,-100.00,North,-999,-999.0,-999.0,23,0.00,,,0.00,,2013-04-04 18:52:00,
2013-04-04 12:00:00,77.0,46.0,-100.00,North,-999,-999.0,-999.0,34,0.00,,,0.00,,2013-04-04 19:00:00,
2013-04-04 12:52:00,77.0,46.0,-100.00,North,-999,-999.0,-999.0,34,0.00,,,0.00,,2013-04-04 19:52:00,
2013-04-04 13:00:00,79.0,51.0,-100.00,North,-999,-999.0,-999.0,38,0.00,,,0.00,,2013-04-04 20:00:00,
2013-04-04 13:53:00,79.0,51.0,-100.00,North,-999,-999.0,-999.0,38,0.00,,,0.00,,2013-04-04 20:53:00,
2013-04-04 14:00:00,79.0,52.0,-100.00,North,-999,-999.0,-999.0,39,0.00,,,-99.99,,2013-04-04 21:00:00,
2013-04-04 14:53:00,79.0,52.0,-100.00,North,-999,-999.0,-999.0,39,0.00,,,-99.99,,2013-04-04 21:53:00,
2013-04-04 15:00:00,79.0,50.0,-100.00,North,-999,-999.0,-999.0,36,0.00,,,-99.99,,2013-04-04 22:00:00,
2013-04-04 15:53:00,79.0,50.0,-100.00,North,-999,-999.0,-999.0,36,0.00,,,-99.99,,2013-04-04 22:53:00,
2013-04-04 16:00:00,81.0,47.0,-100.00,North,-999,-999.0,-999.0,30,0.00,,,-99.99,,2013-04-04 23:00:00,
2013-04-04 16:52:00,81.0,47.0,-100.00,North,-999,-999.0,-999.0,30,0.00,,,-99.99,,2013-04-04 23:52:00,
2013-04-04 17:00:00,81.0,47.0,-100.00,North,-999,-999.0,-999.0,31,0.00,,,0.00,,2013-04-05 00:00:00,
2013-04-04 17:52:00,81.0,47.0,-100.00,North,-999,-999.0,-999.0,31,0.00,,,0.00,,2013-04-05 00:52:00,
2013-04-04 18:00:00,79.0,47.0,-100.00,North,-999,-999.0,-999.0,32,0.00,,,-99.99,,2013-04-05 01:00:00,
2013-04-04 18:53:00,79.0,47.0,-100.00,North,-999,-999.0,-999.0,32,0.00,,,-99.99,,2013-04-05 01:53:00,
2013-04-04 19:00:00,77.0,49.0,-100.00,North,-999,-999.0,-999.0,37,0.00,,,0.00,,2013-04-05 02:00:00,
2013-04-04 19:52:00,77.0,49.0,-100.00,North,-999,-999.0,-999.0,37,0.00,,,0.00,,2013-04-05 02:52:00,
2013-04-04 20:00:00,75.0,52.0,-100.00,North,-999,-999.0,-999.0,46,-99.99,,,0.00,,2013-04-05 03:00:00,
2013-04-04 20:53:00,75.0,52.0,-100.00,North,-999,-999.0,-999.0,46,-99.99,,,0.00,,2013-04-05 03:53:00,
2013-04-04 21:00:00,73.0,54.0,-100.00,North,-999,-999.0,-999.0,50,-99.99,,,0.00,,2013-04-05 04:00:00,
2013-04-04 21:52:00,73.0,54.0,-100.00,North,-999,-999.0,-999.0,50,-99.99,,,0.00,,2013-04-05 04:52:00,
2013-04-04 22:00:00,72.0,53.0,-100.00,North,-999,-999.0,-999.0,51,-99.99,,,-99.99,,2013-04-05 05:00:00,
2013-04-04 23:00:00,71.0,55.0,-100.00,North,-999,-999.0,-999.0,56,-99.99,,,0.00,,2013-04-05 06:00:00,
2013-04-04 23:52:00,71.0,55.0,-100.00,North,-999,-999.0,-999.0,56,-99.99,,,0.00,,2013-04-05 06:52:00,